sensor_id;sensor_type;location;lat;lon;timestamp;pressure;altitude;pressure_sealevel;temperature;humidity
62544;BME280;48597;49.030;1.822;2023-10-13T00:01:47;100544.69;;;21.66;55.19
62544;BME280;48597;49.030;1.822;2023-10-13T00:04:12;100546.75;;;21.66;54.85
62544;BME280;48597;49.030;1.822;2023-10-13T00:06:38;100544.22;;;21.68;55.07
62544;BME280;48597;49.030;1.822;2023-10-13T00:09:03;100538.47;;;21.68;54.94
62544;BME280;48597;49.030;1.822;2023-10-13T00:11:29;100546.28;;;21.67;54.90
62544;BME280;48597;49.030;1.822;2023-10-13T00:13:54;100551.22;;;21.67;54.79
62544;BME280;48597;49.030;1.822;2023-10-13T00:16:20;100539.75;;;21.67;55.24
62544;BME280;48597;49.030;1.822;2023-10-13T00:18:52;100542.59;;;21.67;54.81
62544;BME280;48597;49.030;1.822;2023-10-13T00:21:22;100534.81;;;21.67;54.84
62544;BME280;48597;49.030;1.822;2023-10-13T00:23:57;100534.00;;;21.67;54.85
62544;BME280;48597;49.030;1.822;2023-10-13T00:26:25;100536.06;;;21.66;55.11
62544;BME280;48597;49.030;1.822;2023-10-13T00:29:00;100531.13;;;21.67;55.02
62544;BME280;48597;49.030;1.822;2023-10-13T00:31:41;100536.88;;;21.67;54.93
62544;BME280;48597;49.030;1.822;2023-10-13T00:34:08;100534.81;;;21.67;54.92
62544;BME280;48597;49.030;1.822;2023-10-13T00:36:51;100529.06;;;21.67;55.07
62544;BME280;48597;49.030;1.822;2023-10-13T00:39:37;100530.34;;;21.66;54.87
62544;BME280;48597;49.030;1.822;2023-10-13T00:42:05;100524.59;;;21.66;54.85
62544;BME280;48597;49.030;1.822;2023-10-13T00:44:32;100519.66;;;21.67;55.16
62544;BME280;48597;49.030;1.822;2023-10-13T00:47:06;100516.78;;;21.67;54.92
62544;BME280;48597;49.030;1.822;2023-10-13T00:49:34;100513.94;;;21.67;55.21
62544;BME280;48597;49.030;1.822;2023-10-13T00:52:05;100513.94;;;21.67;55.07
62544;BME280;48597;49.030;1.822;2023-10-13T00:54:30;100514.72;;;21.67;55.02
62544;BME280;48597;49.030;1.822;2023-10-13T00:56:57;100515.53;;;21.68;54.87
62544;BME280;48597;49.030;1.822;2023-10-13T00:59:29;100510.25;;;21.66;55.10
62544;BME280;48597;49.030;1.822;2023-10-13T01:01:58;100505.31;;;21.67;55.02
62544;BME280;48597;49.030;1.822;2023-10-13T01:04:33;100511.84;;;21.67;55.14
62544;BME280;48597;49.030;1.822;2023-10-13T01:06:59;100508.97;;;21.67;54.99
62544;BME280;48597;49.030;1.822;2023-10-13T01:09:24;100506.13;;;21.67;55.19
62544;BME280;48597;49.030;1.822;2023-10-13T01:11:50;100500.38;;;21.67;54.95
62544;BME280;48597;49.030;1.822;2023-10-13T01:14:19;100488.09;;;21.67;54.89
62544;BME280;48597;49.030;1.822;2023-10-13T01:16:45;100488.91;;;21.67;55.01
62544;BME280;48597;49.030;1.822;2023-10-13T01:19:14;100487.31;;;21.66;55.17
62544;BME280;48597;49.030;1.822;2023-10-13T01:21:44;100482.38;;;21.67;54.79
62544;BME280;48597;49.030;1.822;2023-10-13T01:24:10;100477.44;;;21.67;55.03
62544;BME280;48597;49.030;1.822;2023-10-13T01:26:38;100477.44;;;21.67;54.76
62544;BME280;48597;49.030;1.822;2023-10-13T01:29:04;100474.56;;;21.67;54.83
62544;BME280;48597;49.030;1.822;2023-10-13T01:31:40;100477.44;;;21.67;54.87
62544;BME280;48597;49.030;1.822;2023-10-13T01:34:11;100470.91;;;21.67;55.08
62544;BME280;48597;49.030;1.822;2023-10-13T01:36:37;100463.91;;;21.68;54.89
62544;BME280;48597;49.030;1.822;2023-10-13T01:39:05;100464.34;;;21.66;55.12
62544;BME280;48597;49.030;1.822;2023-10-13T01:41:30;100456.56;;;21.67;55.23
62544;BME280;48597;49.030;1.822;2023-10-13T01:43:55;100455.28;;;21.68;55.14
62544;BME280;48597;49.030;1.822;2023-10-13T01:46:22;100436.47;;;21.67;55.03
62544;BME280;48597;49.030;1.822;2023-10-13T01:48:47;100435.69;;;21.66;55.01
62544;BME280;48597;49.030;1.822;2023-10-13T01:51:13;100425.81;;;21.67;55.08
62544;BME280;48597;49.030;1.822;2023-10-13T01:53:39;100421.34;;;21.66;54.85
62544;BME280;48597;49.030;1.822;2023-10-13T01:56:04;100420.88;;;21.68;55.12
62544;BME280;48597;49.030;1.822;2023-10-13T01:58:39;100420.06;;;21.67;54.91
62544;BME280;48597;49.030;1.822;2023-10-13T02:01:08;100415.59;;;21.66;54.96
62544;BME280;48597;49.030;1.822;2023-10-13T02:03:34;100407.78;;;21.67;55.02
62544;BME280;48597;49.030;1.822;2023-10-13T02:06:06;100404.94;;;21.67;55.01
62544;BME280;48597;49.030;1.822;2023-10-13T02:08:32;100402.84;;;21.67;55.12
62544;BME280;48597;49.030;1.822;2023-10-13T02:10:57;100402.84;;;21.67;55.12
62544;BME280;48597;49.030;1.822;2023-10-13T02:13:23;100404.94;;;21.67;55.23
62544;BME280;48597;49.030;1.822;2023-10-13T02:15:49;100409.88;;;21.66;55.11
62544;BME280;48597;49.030;1.822;2023-10-13T02:18:17;100412.72;;;21.66;55.08
62544;BME280;48597;49.030;1.822;2023-10-13T02:20:50;100404.13;;;21.66;55.07
62544;BME280;48597;49.030;1.822;2023-10-13T02:23:23;100407.78;;;21.67;54.94
62544;BME280;48597;49.030;1.822;2023-10-13T02:25:49;100408.59;;;21.67;54.93
62544;BME280;48597;49.030;1.822;2023-10-13T02:28:25;100411.47;;;21.67;54.93
62544;BME280;48597;49.030;1.822;2023-10-13T02:30:53;100411.47;;;21.67;55.03
62544;BME280;48597;49.030;1.822;2023-10-13T02:33:19;100412.72;;;21.66;54.93
62544;BME280;48597;49.030;1.822;2023-10-13T02:35:47;100407.00;;;21.66;55.04
62544;BME280;48597;49.030;1.822;2023-10-13T02:38:18;100404.94;;;21.67;55.21
62544;BME280;48597;49.030;1.822;2023-10-13T02:40:51;100397.13;;;21.67;55.12
62544;BME280;48597;49.030;1.822;2023-10-13T02:43:19;100395.06;;;21.68;55.03
62544;BME280;48597;49.030;1.822;2023-10-13T02:45:53;100385.66;;;21.67;55.24
62544;BME280;48597;49.030;1.822;2023-10-13T02:48:23;100384.84;;;21.67;55.11
62544;BME280;48597;49.030;1.822;2023-10-13T02:50:54;100379.09;;;21.67;55.28
62544;BME280;48597;49.030;1.822;2023-10-13T02:53:20;100373.38;;;21.67;54.87
62544;BME280;48597;49.030;1.822;2023-10-13T02:55:51;100374.16;;;21.67;55.02
62544;BME280;48597;49.030;1.822;2023-10-13T02:58:17;100368.44;;;21.67;55.01
62544;BME280;48597;49.030;1.822;2023-10-13T03:00:43;100359.03;;;21.67;55.07
62544;BME280;48597;49.030;1.822;2023-10-13T03:03:11;100346.75;;;21.66;55.01
62544;BME280;48597;49.030;1.822;2023-10-13T03:05:39;100351.22;;;21.67;55.19
62544;BME280;48597;49.030;1.822;2023-10-13T03:08:05;100341.81;;;21.67;54.92
62544;BME280;48597;49.030;1.822;2023-10-13T03:10:31;100341.81;;;21.67;55.12
62544;BME280;48597;49.030;1.822;2023-10-13T03:12:57;100338.94;;;21.67;55.16
62544;BME280;48597;49.030;1.822;2023-10-13T03:15:23;100333.22;;;21.67;54.94
62544;BME280;48597;49.030;1.822;2023-10-13T03:17:54;100323.81;;;21.66;55.11
62544;BME280;48597;49.030;1.822;2023-10-13T03:20:20;100320.94;;;21.66;55.19
62544;BME280;48597;49.030;1.822;2023-10-13T03:22:52;100316.00;;;21.67;55.04
62544;BME280;48597;49.030;1.822;2023-10-13T03:25:17;100312.34;;;21.66;55.07
62544;BME280;48597;49.030;1.822;2023-10-13T03:27:49;100317.28;;;21.66;55.09
62544;BME280;48597;49.030;1.822;2023-10-13T03:30:17;100311.53;;;21.66;55.09
62544;BME280;48597;49.030;1.822;2023-10-13T03:32:43;100308.66;;;21.66;55.11
62544;BME280;48597;49.030;1.822;2023-10-13T03:35:12;100300.88;;;21.66;55.28
62544;BME280;48597;49.030;1.822;2023-10-13T03:37:52;100308.66;;;21.66;55.18
62544;BME280;48597;49.030;1.822;2023-10-13T03:40:18;100303.72;;;21.66;55.18
62544;BME280;48597;49.030;1.822;2023-10-13T03:45:45;100286.53;;;21.66;55.12
62544;BME280;48597;49.030;1.822;2023-10-13T03:48:16;100277.13;;;21.66;55.19
62544;BME280;48597;49.030;1.822;2023-10-13T03:50:51;100280.00;;;21.66;55.45
62544;BME280;48597;49.030;1.822;2023-10-13T03:53:28;100271.38;;;21.66;55.01
62544;BME280;48597;49.030;1.822;2023-10-13T03:55:58;100270.13;;;21.67;54.93
62544;BME280;48597;49.030;1.822;2023-10-13T03:58:36;100254.19;;;21.66;55.00
62544;BME280;48597;49.030;1.822;2023-10-13T04:01:03;100253.38;;;21.65;54.95
62544;BME280;48597;49.030;1.822;2023-10-13T04:03:29;100244.78;;;21.65;55.04
62544;BME280;48597;49.030;1.822;2023-10-13T04:06:00;100247.63;;;21.65;55.08
62544;BME280;48597;49.030;1.822;2023-10-13T04:08:31;100243.97;;;21.65;55.14
62544;BME280;48597;49.030;1.822;2023-10-13T04:11:14;100235.38;;;21.65;55.17
62544;BME280;48597;49.030;1.822;2023-10-13T04:13:58;100229.63;;;21.65;55.10
62544;BME280;48597;49.030;1.822;2023-10-13T04:16:42;100226.75;;;21.65;55.36
62544;BME280;48597;49.030;1.822;2023-10-13T04:19:17;100220.22;;;21.64;55.21
62544;BME280;48597;49.030;1.822;2023-10-13T04:21:49;100228.84;;;21.64;55.13
62544;BME280;48597;49.030;1.822;2023-10-13T04:24:23;100224.69;;;21.65;55.41
62544;BME280;48597;49.030;1.822;2023-10-13T04:27:02;100215.28;;;21.65;55.04
62544;BME280;48597;49.030;1.822;2023-10-13T04:29:37;100206.69;;;21.65;55.17
62544;BME280;48597;49.030;1.822;2023-10-13T04:32:21;100203.03;;;21.64;54.94
62544;BME280;48597;49.030;1.822;2023-10-13T04:35:03;100193.63;;;21.64;55.10
62544;BME280;48597;49.030;1.822;2023-10-13T04:37:37;100189.47;;;21.65;55.00
62544;BME280;48597;49.030;1.822;2023-10-13T04:40:21;100182.16;;;21.64;55.24
62544;BME280;48597;49.030;1.822;2023-10-13T04:43:00;100186.63;;;21.65;55.02
62544;BME280;48597;49.030;1.822;2023-10-13T04:45:30;100197.28;;;21.64;55.13
62544;BME280;48597;49.030;1.822;2023-10-13T04:48:00;100190.75;;;21.64;55.13
62544;BME280;48597;49.030;1.822;2023-10-13T04:50:40;100185.81;;;21.64;55.10
62544;BME280;48597;49.030;1.822;2023-10-13T04:53:15;100175.94;;;21.65;54.96
62544;BME280;48597;49.030;1.822;2023-10-13T04:55:56;100185.81;;;21.64;55.18
62544;BME280;48597;49.030;1.822;2023-10-13T04:58:27;100180.09;;;21.64;55.10
62544;BME280;48597;49.030;1.822;2023-10-13T05:01:12;100168.59;;;21.64;54.91
62544;BME280;48597;49.030;1.822;2023-10-13T05:03:49;100173.53;;;21.64;55.17
62544;BME280;48597;49.030;1.822;2023-10-13T05:06:33;100169.09;;;21.63;55.29
62544;BME280;48597;49.030;1.822;2023-10-13T05:09:11;100169.88;;;21.63;55.07
62544;BME280;48597;49.030;1.822;2023-10-13T05:11:55;100162.06;;;21.64;55.01
62544;BME280;48597;49.030;1.822;2023-10-13T05:14:39;100164.94;;;21.64;55.24
62544;BME280;48597;49.030;1.822;2023-10-13T05:17:23;100164.94;;;21.64;55.24
62544;BME280;48597;49.030;1.822;2023-10-13T05:20:07;100149.81;;;21.63;54.99
62544;BME280;48597;49.030;1.822;2023-10-13T05:22:51;100136.75;;;21.62;55.24
62544;BME280;48597;49.030;1.822;2023-10-13T05:25:36;100121.13;;;21.63;55.00
62544;BME280;48597;49.030;1.822;2023-10-13T05:28:19;100103.91;;;21.63;55.12
62544;BME280;48597;49.030;1.822;2023-10-13T05:31:03;100111.72;;;21.63;55.20
62544;BME280;48597;49.030;1.822;2023-10-13T05:33:47;100121.13;;;21.63;55.21
62544;BME280;48597;49.030;1.822;2023-10-13T05:36:32;100138.34;;;21.63;55.15
62544;BME280;48597;49.030;1.822;2023-10-13T05:39:16;100136.75;;;21.62;55.03
62544;BME280;48597;49.030;1.822;2023-10-13T05:42:00;100138.34;;;21.63;54.88
62544;BME280;48597;49.030;1.822;2023-10-13T05:44:44;100131.00;;;21.62;54.88
62544;BME280;48597;49.030;1.822;2023-10-13T05:47:22;100136.75;;;21.62;55.04
62544;BME280;48597;49.030;1.822;2023-10-13T05:50:06;100122.41;;;21.62;55.15
62544;BME280;48597;49.030;1.822;2023-10-13T05:52:47;100116.66;;;21.62;55.07
62544;BME280;48597;49.030;1.822;2023-10-13T05:55:27;100113.78;;;21.62;55.21
62544;BME280;48597;49.030;1.822;2023-10-13T05:58:11;100115.06;;;21.61;55.01
62544;BME280;48597;49.030;1.822;2023-10-13T06:00:55;100124.47;;;21.62;55.05
62544;BME280;48597;49.030;1.822;2023-10-13T06:03:39;100124.47;;;21.62;55.03
62544;BME280;48597;49.030;1.822;2023-10-13T06:06:23;100117.13;;;21.61;55.16
62544;BME280;48597;49.030;1.822;2023-10-13T06:09:07;100118.72;;;21.62;54.97
62544;BME280;48597;49.030;1.822;2023-10-13T06:11:50;100129.41;;;21.61;55.15
62544;BME280;48597;49.030;1.822;2023-10-13T06:14:34;100129.41;;;21.61;54.93
62544;BME280;48597;49.030;1.822;2023-10-13T06:17:18;100135.16;;;21.61;55.25
62544;BME280;48597;49.030;1.822;2023-10-13T06:20:02;100138.00;;;21.61;55.09
62544;BME280;48597;49.030;1.822;2023-10-13T06:22:49;100140.88;;;21.61;54.97
62544;BME280;48597;49.030;1.822;2023-10-13T06:25:33;100147.88;;;21.60;55.23
62544;BME280;48597;49.030;1.822;2023-10-13T06:28:17;100161.44;;;21.60;55.07
62544;BME280;48597;49.030;1.822;2023-10-13T06:31:01;100163.03;;;21.61;54.97
62544;BME280;48597;49.030;1.822;2023-10-13T06:33:27;100157.28;;;21.61;55.22
62544;BME280;48597;49.030;1.822;2023-10-13T06:35:58;100163.03;;;21.61;54.93
62544;BME280;48597;49.030;1.822;2023-10-13T06:38:24;100174.03;;;21.62;54.81
62544;BME280;48597;49.030;1.822;2023-10-13T06:40:49;100169.56;;;21.61;55.08
62544;BME280;48597;49.030;1.822;2023-10-13T06:43:17;100163.81;;;21.61;54.87
62544;BME280;48597;49.030;1.822;2023-10-13T06:45:47;100161.44;;;21.60;55.29
62544;BME280;48597;49.030;1.822;2023-10-13T06:48:28;100166.69;;;21.61;54.86
62544;BME280;48597;49.030;1.822;2023-10-13T06:50:59;100148.38;;;21.59;54.90
62544;BME280;48597;49.030;1.822;2023-10-13T06:53:30;100152.81;;;21.60;54.89
62544;BME280;48597;49.030;1.822;2023-10-13T06:55:55;100156.50;;;21.60;55.15
62544;BME280;48597;49.030;1.822;2023-10-13T06:58:24;100162.22;;;21.60;54.85
62544;BME280;48597;49.030;1.822;2023-10-13T07:00:49;100157.75;;;21.59;54.82
62544;BME280;48597;49.030;1.822;2023-10-13T07:03:23;100161.44;;;21.60;55.07
62544;BME280;48597;49.030;1.822;2023-10-13T07:05:49;100159.03;;;21.58;54.97
62544;BME280;48597;49.030;1.822;2023-10-13T07:08:16;100157.75;;;21.59;54.79
62544;BME280;48597;49.030;1.822;2023-10-13T07:10:52;100160.63;;;21.59;55.00
62544;BME280;48597;49.030;1.822;2023-10-13T07:13:38;100148.38;;;21.59;54.92
62544;BME280;48597;49.030;1.822;2023-10-13T07:16:04;100157.44;;;21.57;55.04
62544;BME280;48597;49.030;1.822;2023-10-13T07:18:38;100156.50;;;21.60;54.99
62544;BME280;48597;49.030;1.822;2023-10-13T07:21:17;100159.03;;;21.58;54.97
62544;BME280;48597;49.030;1.822;2023-10-13T07:23:49;100154.09;;;21.59;55.08
62544;BME280;48597;49.030;1.822;2023-10-13T07:26:33;100141.03;;;21.58;54.82
62544;BME280;48597;49.030;1.822;2023-10-13T07:28:58;100154.59;;;21.57;54.92
62544;BME280;48597;49.030;1.822;2023-10-13T07:31:25;100154.59;;;21.57;54.86
62544;BME280;48597;49.030;1.822;2023-10-13T07:33:52;100146.28;;;21.59;54.74
62544;BME280;48597;49.030;1.822;2023-10-13T07:36:29;100152.50;;;21.58;55.11
62544;BME280;48597;49.030;1.822;2023-10-13T07:38:58;100157.75;;;21.59;55.13
62544;BME280;48597;49.030;1.822;2023-10-13T07:41:46;100136.09;;;21.58;54.83
62544;BME280;48597;49.030;1.822;2023-10-13T07:44:16;100147.56;;;21.58;54.98
62544;BME280;48597;49.030;1.822;2023-10-13T07:46:41;100141.69;;;21.62;55.20
62544;BME280;48597;49.030;1.822;2023-10-13T07:49:07;100153.16;;;21.62;55.31
62544;BME280;48597;49.030;1.822;2023-10-13T07:51:36;100136.75;;;21.62;55.31
62544;BME280;48597;49.030;1.822;2023-10-13T07:54:14;100159.69;;;21.62;55.14
62544;BME280;48597;49.030;1.822;2023-10-13T07:56:47;100151.56;;;21.61;55.34
62544;BME280;48597;49.030;1.822;2023-10-13T07:59:12;100154.44;;;21.61;55.13
62544;BME280;48597;49.030;1.822;2023-10-13T08:01:42;100137.22;;;21.61;54.89
62544;BME280;48597;49.030;1.822;2023-10-13T08:04:10;100152.50;;;21.67;55.07
62544;BME280;48597;49.030;1.822;2023-10-13T08:06:36;100153.59;;;21.69;54.92
62544;BME280;48597;49.030;1.822;2023-10-13T08:09:02;100161.91;;;21.67;54.97
62544;BME280;48597;49.030;1.822;2023-10-13T08:11:34;100145.66;;;21.64;55.05
62544;BME280;48597;49.030;1.822;2023-10-13T08:14:00;100145.66;;;21.64;55.34
62544;BME280;48597;49.030;1.822;2023-10-13T08:16:36;100137.38;;;21.66;55.20
62544;BME280;48597;49.030;1.822;2023-10-13T08:19:14;100138.16;;;21.67;55.34
62544;BME280;48597;49.030;1.822;2023-10-13T08:21:40;100134.03;;;21.68;55.06
62544;BME280;48597;49.030;1.822;2023-10-13T08:24:14;100133.84;;;21.71;55.45
62544;BME280;48597;49.030;1.822;2023-10-13T08:26:40;100135.91;;;21.71;55.21
62544;BME280;48597;49.030;1.822;2023-10-13T08:29:24;100137.97;;;21.70;54.93
62544;BME280;48597;49.030;1.822;2023-10-13T08:31:55;100127.78;;;21.69;55.43
62544;BME280;48597;49.030;1.822;2023-10-13T08:34:29;100127.78;;;21.69;55.18
62544;BME280;48597;49.030;1.822;2023-10-13T08:37:04;100125.72;;;21.70;55.07
62544;BME280;48597;49.030;1.822;2023-10-13T08:39:44;100129.38;;;21.70;54.90
62544;BME280;48597;49.030;1.822;2023-10-13T08:42:31;100120.78;;;21.70;55.13
62544;BME280;48597;49.030;1.822;2023-10-13T08:45:18;100120.78;;;21.70;55.14
62544;BME280;48597;49.030;1.822;2023-10-13T08:48:06;100118.22;;;21.72;55.16
62544;BME280;48597;49.030;1.822;2023-10-13T08:50:45;100117.44;;;21.72;55.06
62544;BME280;48597;49.030;1.822;2023-10-13T08:53:23;100116.16;;;21.73;55.21
62544;BME280;48597;49.030;1.822;2023-10-13T08:55:53;100109.13;;;21.74;55.18
62544;BME280;48597;49.030;1.822;2023-10-13T08:58:39;100107.88;;;21.75;55.17
62544;BME280;48597;49.030;1.822;2023-10-13T09:01:18;100111.06;;;21.77;55.09
62544;BME280;48597;49.030;1.822;2023-10-13T09:04:05;100107.38;;;21.77;54.95
62544;BME280;48597;49.030;1.822;2023-10-13T09:06:47;100108.19;;;21.77;55.35
62544;BME280;48597;49.030;1.822;2023-10-13T09:09:23;100104.84;;;21.79;55.22
62544;BME280;48597;49.030;1.822;2023-10-13T09:12:10;100104.34;;;21.80;55.15
62544;BME280;48597;49.030;1.822;2023-10-13T09:14:39;100103.06;;;21.81;55.22
62544;BME280;48597;49.030;1.822;2023-10-13T09:17:12;100095.25;;;21.82;55.46
62544;BME280;48597;49.030;1.822;2023-10-13T09:19:58;100087.44;;;21.82;55.20
62544;BME280;48597;49.030;1.822;2023-10-13T09:22:27;100088.53;;;21.85;54.74
62544;BME280;48597;49.030;1.822;2023-10-13T09:24:58;100097.94;;;21.85;55.08
62544;BME280;48597;49.030;1.822;2023-10-13T09:27:33;100088.84;;;21.87;55.08
62544;BME280;48597;49.030;1.822;2023-10-13T09:29:58;100092.53;;;21.87;55.38
62544;BME280;48597;49.030;1.822;2023-10-13T09:32:43;100091.72;;;21.87;55.24
62544;BME280;48597;49.030;1.822;2023-10-13T09:35:13;100076.59;;;21.86;55.05
62544;BME280;48597;49.030;1.822;2023-10-13T09:37:41;100101.94;;;21.88;55.23
62544;BME280;48597;49.030;1.822;2023-10-13T09:40:07;100086.31;;;21.89;55.25
62544;BME280;48597;49.030;1.822;2023-10-13T09:42:50;100089.50;;;21.91;55.35
62544;BME280;48597;49.030;1.822;2023-10-13T09:45:15;100085.34;;;21.92;55.33
62544;BME280;48597;49.030;1.822;2023-10-13T09:47:43;100084.56;;;21.91;55.32
62544;BME280;48597;49.030;1.822;2023-10-13T09:50:12;100082.47;;;21.92;54.95
62544;BME280;48597;49.030;1.822;2023-10-13T09:52:49;100081.19;;;21.93;55.33
62544;BME280;48597;49.030;1.822;2023-10-13T09:55:23;100079.91;;;21.94;55.11
62544;BME280;48597;49.030;1.822;2023-10-13T09:57:57;100078.63;;;21.95;55.06
62544;BME280;48597;49.030;1.822;2023-10-13T10:00:26;100072.88;;;21.95;54.78
62544;BME280;48597;49.030;1.822;2023-10-13T10:03:11;100076.53;;;21.95;55.01
62544;BME280;48597;49.030;1.822;2023-10-13T10:05:55;100066.66;;;21.96;55.23
62544;BME280;48597;49.030;1.822;2023-10-13T10:08:28;100059.63;;;21.97;54.96
62544;BME280;48597;49.030;1.822;2023-10-13T10:11:15;100065.38;;;21.97;54.75
62544;BME280;48597;49.030;1.822;2023-10-13T10:16:10;100055.84;;;22.00;54.96
62544;BME280;48597;49.030;1.822;2023-10-13T10:18:40;100056.63;;;22.01;54.64
62544;BME280;48597;49.030;1.822;2023-10-13T10:21:05;100055.34;;;22.02;54.83
62544;BME280;48597;49.030;1.822;2023-10-13T10:23:35;100065.56;;;22.03;54.80
62544;BME280;48597;49.030;1.822;2023-10-13T10:26:11;100072.09;;;22.03;54.69
62544;BME280;48597;49.030;1.822;2023-10-13T10:28:39;100072.88;;;22.04;54.87
62544;BME280;48597;49.030;1.822;2023-10-13T10:31:07;100065.06;;;22.04;54.79
62544;BME280;48597;49.030;1.822;2023-10-13T10:33:39;100063.00;;;22.05;54.78
62544;BME280;48597;49.030;1.822;2023-10-13T10:36:04;100063.00;;;22.05;54.85
62544;BME280;48597;49.030;1.822;2023-10-13T10:38:30;100060.94;;;22.05;54.75
62544;BME280;48597;49.030;1.822;2023-10-13T10:40:57;100054.38;;;22.05;54.71
62544;BME280;48597;49.030;1.822;2023-10-13T10:43:43;100053.09;;;22.06;54.62
62544;BME280;48597;49.030;1.822;2023-10-13T10:46:09;100055.19;;;22.05;54.56
62544;BME280;48597;49.030;1.822;2023-10-13T10:48:36;100053.91;;;22.06;54.94
62544;BME280;48597;49.030;1.822;2023-10-13T10:51:03;100062.50;;;22.06;54.81
62544;BME280;48597;49.030;1.822;2023-10-13T10:53:33;100057.56;;;22.07;54.83
62544;BME280;48597;49.030;1.822;2023-10-13T10:56:08;100049.72;;;22.07;54.56
62544;BME280;48597;49.030;1.822;2023-10-13T10:58:45;100049.72;;;22.07;54.88
62544;BME280;48597;49.030;1.822;2023-10-13T11:01:10;100050.53;;;22.08;54.95
62544;BME280;48597;49.030;1.822;2023-10-13T11:03:37;100049.25;;;22.09;54.69
62544;BME280;48597;49.030;1.822;2023-10-13T11:06:03;100052.13;;;22.09;54.97
62544;BME280;48597;49.030;1.822;2023-10-13T11:08:30;100041.91;;;22.08;54.89
62544;BME280;48597;49.030;1.822;2023-10-13T11:10:58;100050.03;;;22.09;54.59
62544;BME280;48597;49.030;1.822;2023-10-13T11:13:39;100048.44;;;22.08;54.63
62544;BME280;48597;49.030;1.822;2023-10-13T11:16:19;100043.50;;;22.09;54.80
62544;BME280;48597;49.030;1.822;2023-10-13T11:18:48;100042.22;;;22.10;54.78
62544;BME280;48597;49.030;1.822;2023-10-13T11:21:14;100038.06;;;22.11;54.96
62544;BME280;48597;49.030;1.822;2023-10-13T11:23:40;100042.22;;;22.10;54.87
62544;BME280;48597;49.030;1.822;2023-10-13T11:26:05;100033.13;;;22.12;54.93
62544;BME280;48597;49.030;1.822;2023-10-13T11:28:32;100034.41;;;22.10;54.85
62544;BME280;48597;49.030;1.822;2023-10-13T11:30:59;100032.34;;;22.11;54.83
62544;BME280;48597;49.030;1.822;2023-10-13T11:33:25;100033.13;;;22.12;54.96
62544;BME280;48597;49.030;1.822;2023-10-13T11:35:54;100031.53;;;22.10;54.79
62544;BME280;48597;49.030;1.822;2023-10-13T11:41:03;100020.84;;;22.11;55.04
62544;BME280;48597;49.030;1.822;2023-10-13T11:43:31;100018.78;;;22.12;54.89
62544;BME280;48597;49.030;1.822;2023-10-13T11:46:26;100013.84;;;22.12;54.57
62544;BME280;48597;49.030;1.822;2023-10-13T11:49:00;100014.63;;;22.13;55.01
62544;BME280;48597;49.030;1.822;2023-10-13T11:51:30;100015.91;;;22.12;54.96
62544;BME280;48597;49.030;1.822;2023-10-13T11:53:57;100006.03;;;22.13;54.94
62544;BME280;48597;49.030;1.822;2023-10-13T11:56:23;100003.16;;;22.13;55.10
62544;BME280;48597;49.030;1.822;2023-10-13T11:58:49;99991.69;;;22.13;55.13
62544;BME280;48597;49.030;1.822;2023-10-13T12:01:15;99996.13;;;22.14;55.07
62544;BME280;48597;49.030;1.822;2023-10-13T12:06:24;99979.72;;;22.14;55.03
62544;BME280;48597;49.030;1.822;2023-10-13T12:11:39;99953.88;;;22.14;55.10
62544;BME280;48597;49.030;1.822;2023-10-13T12:14:06;99943.97;;;22.15;55.09
62544;BME280;48597;49.030;1.822;2023-10-13T12:16:52;99959.94;;;22.16;54.88
62544;BME280;48597;49.030;1.822;2023-10-13T12:19:18;99955.47;;;22.15;55.21
62544;BME280;48597;49.030;1.822;2023-10-13T12:21:48;99954.19;;;22.16;55.14
62544;BME280;48597;49.030;1.822;2023-10-13T12:24:14;99952.91;;;22.17;54.89
62544;BME280;48597;49.030;1.822;2023-10-13T12:26:58;99946.38;;;22.17;55.05
62544;BME280;48597;49.030;1.822;2023-10-13T12:29:23;99942.22;;;22.18;54.97
62544;BME280;48597;49.030;1.822;2023-10-13T12:31:53;99951.63;;;22.18;55.10
62544;BME280;48597;49.030;1.822;2023-10-13T12:34:34;99940.16;;;22.18;55.06
62544;BME280;48597;49.030;1.822;2023-10-13T12:37:26;99937.28;;;22.18;54.87
62544;BME280;48597;49.030;1.822;2023-10-13T12:40:01;99935.69;;;22.17;55.06
62544;BME280;48597;49.030;1.822;2023-10-13T12:42:45;99933.59;;;22.18;54.98
62544;BME280;48597;49.030;1.822;2023-10-13T12:45:29;99932.31;;;22.19;55.10
62544;BME280;48597;49.030;1.822;2023-10-13T12:48:13;99934.41;;;22.18;55.12
62544;BME280;48597;49.030;1.822;2023-10-13T12:51:00;99924.50;;;22.19;54.97
62544;BME280;48597;49.030;1.822;2023-10-13T12:53:43;99926.88;;;22.21;55.13
62544;BME280;48597;49.030;1.822;2023-10-13T12:56:10;99915.38;;;22.21;55.21
62544;BME280;48597;49.030;1.822;2023-10-13T12:58:36;99923.19;;;22.20;55.19
62544;BME280;48597;49.030;1.822;2023-10-13T13:01:01;99921.91;;;22.21;54.96
62544;BME280;48597;49.030;1.822;2023-10-13T13:03:33;99908.34;;;22.22;55.04
62544;BME280;48597;49.030;1.822;2023-10-13T13:05:58;99919.84;;;22.22;55.02
62544;BME280;48597;49.030;1.822;2023-10-13T13:08:24;99914.91;;;22.22;54.89
62544;BME280;48597;49.030;1.822;2023-10-13T13:10:50;99923.50;;;22.22;55.06
62544;BME280;48597;49.030;1.822;2023-10-13T13:13:15;99916.47;;;22.23;55.16
62544;BME280;48597;49.030;1.822;2023-10-13T13:15:42;99899.75;;;22.22;55.24
62544;BME280;48597;49.030;1.822;2023-10-13T13:18:07;99904.22;;;22.23;55.16
62544;BME280;48597;49.030;1.822;2023-10-13T13:20:37;99909.94;;;22.23;55.13
62544;BME280;48597;49.030;1.822;2023-10-13T13:23:04;99908.66;;;22.24;55.05
62544;BME280;48597;49.030;1.822;2023-10-13T13:25:30;99901.34;;;22.23;55.08
62544;BME280;48597;49.030;1.822;2023-10-13T13:27:58;99904.22;;;22.23;55.03
62544;BME280;48597;49.030;1.822;2023-10-13T13:30:29;99900.06;;;22.24;55.01
62544;BME280;48597;49.030;1.822;2023-10-13T13:32:59;99892.22;;;22.24;54.89